Time;durP1;ratioP1;P1;durP2;ratioP2;P2;SDS_P1;SDS_P2;PMS_P1;PMS_P2;Temp;Humidity;BMP_temperature;BMP_pressure;BME280_temperature;BME280_humidity;BME280_pressure;Samples;Min_cycle;Max_cycle;Signal;HPM_P1;HPM_P2
2021/11/07 00:05:04;;;;;;;13.48;4.53;;;;;;;9.13;78.68;101665.59;4937940;28;20064;-68
2021/11/07 00:10:44;;;;;;;15.35;4.97;;;;;;;8.89;81.18;101658.09;4947669;28;20044;-68
2021/11/07 00:13:22;;;;;;;10.02;5.07;;;;;;;8.81;82.79;101650.09;4938055;28;20036;-68
2021/11/07 00:15:48;;;;;;;11.75;5.13;;;;;;;8.74;83.53;101646.41;4944574;28;20051;-68
2021/11/07 00:18:24;;;;;;;12.50;4.50;;;;;;;8.64;84.79;101663.56;4927720;28;20028;-67
2021/11/07 00:20:57;;;;;;;11.48;4.60;;;;;;;8.55;85.70;101658.19;4919911;28;20134;-68
2021/11/07 00:26:31;;;;;;;13.23;5.93;;;;;;;8.48;86.09;101651.06;4944116;28;20042;-68
2021/11/07 00:29:06;;;;;;;13.38;5.40;;;;;;;8.42;87.05;101646.34;4941890;28;20640;-68
2021/11/07 00:32:21;;;;;;;11.88;5.45;;;;;;;8.42;86.96;101641.19;4951948;28;20067;-68
2021/11/07 00:37:21;;;;;;;11.52;5.72;;;;;;;8.28;88.94;101639.66;4948517;28;20035;-68
2021/11/07 00:40:07;;;;;;;12.77;6.05;;;;;;;8.26;89.67;101634.59;4942412;28;20549;-68
2021/11/07 00:42:43;;;;;;;15.68;6.85;;;;;;;8.26;89.97;101636.38;4945981;28;20039;-68
2021/11/07 00:45:24;;;;;;;12.75;6.10;;;;;;;8.25;90.35;101630.41;4928901;28;20059;-68
2021/11/07 00:51:23;;;;;;;13.15;6.38;;;;;;;8.18;91.25;101621.47;4956758;28;20488;-68
2021/11/07 00:59:07;;;;;;;16.85;7.57;;;;;;;8.13;91.71;101608.09;4961911;28;20083;-68
2021/11/07 01:01:36;;;;;;;11.07;5.90;;;;;;;8.12;91.83;101609.06;4966056;28;20534;-67
2021/11/07 01:04:04;;;;;;;10.68;6.25;;;;;;;8.11;91.67;101604.81;4949010;28;20035;-68
2021/11/07 01:06:32;;;;;;;11.30;6.45;;;;;;;8.16;91.52;101594.94;4948920;28;20024;-68
2021/11/07 01:08:57;;;;;;;15.98;7.35;;;;;;;8.19;91.62;101594.69;4932179;28;20041;-67
2021/11/07 01:11:23;;;;;;;15.02;5.93;;;;;;;8.13;91.31;101588.25;4962063;28;20046;-68
2021/11/07 01:13:49;;;;;;;17.90;5.80;;;;;;;8.19;91.39;101581.75;4947622;28;20047;-67
2021/11/07 01:16:16;;;;;;;11.10;5.88;;;;;;;8.09;91.52;101588.63;4961060;28;20050;-68
2021/11/07 01:18:41;;;;;;;17.55;5.85;;;;;;;8.14;91.88;101584.72;4952754;28;20128;-67
2021/11/07 01:21:11;;;;;;;10.38;6.10;;;;;;;8.20;92.05;101596.34;4909338;28;20032;-68
2021/11/07 01:23:42;;;;;;;13.70;5.55;;;;;;;8.10;92.43;101592.81;4939913;28;20129;-68
2021/11/07 01:26:17;;;;;;;13.13;6.30;;;;;;;8.11;93.03;101576.41;4981731;28;20051;-68
2021/11/07 01:28:49;;;;;;;12.52;5.65;;;;;;;8.14;92.84;101582.16;4973474;28;20040;-68
2021/11/07 01:31:16;;;;;;;10.38;6.75;;;;;;;8.21;93.09;101586.81;4942090;28;20036;-67
2021/11/07 01:33:42;;;;;;;8.73;5.18;;;;;;;8.20;93.18;101586.00;4942285;28;20084;-68
2021/11/07 01:36:22;;;;;;;13.32;5.53;;;;;;;8.15;93.59;101588.13;4959212;23;20046;-74
2021/11/07 01:38:55;;;;;;;16.35;5.70;;;;;;;8.06;94.13;101583.69;4980987;28;20044;-76
2021/11/07 01:41:31;;;;;;;10.82;5.55;;;;;;;8.12;94.38;101585.81;4971681;28;20514;-74
2021/11/07 01:43:58;;;;;;;11.38;5.70;;;;;;;8.13;94.68;101587.44;5002622;28;20043;-77
2021/11/07 01:46:30;;;;;;;11.10;5.65;;;;;;;8.12;94.69;101580.63;4983531;28;20027;-76
2021/11/07 01:51:28;;;;;;;11.65;6.13;;;;;;;8.11;94.66;101589.31;4980313;28;20039;-75
2021/11/07 01:54:00;;;;;;;10.63;5.70;;;;;;;8.03;95.61;101574.41;4996999;28;20077;-76
2021/11/07 01:56:26;;;;;;;11.02;5.60;;;;;;;8.18;94.76;101569.81;4991599;28;20496;-75
2021/11/07 01:58:51;;;;;;;15.75;5.78;;;;;;;8.10;94.58;101574.75;4948220;28;20034;-75
2021/11/07 02:01:22;;;;;;;10.63;6.43;;;;;;;8.13;95.08;101567.56;4992164;28;20458;-76
2021/11/07 02:03:49;;;;;;;10.75;5.50;;;;;;;8.07;94.89;101568.06;5005920;28;20161;-76
2021/11/07 02:06:14;;;;;;;9.13;5.18;;;;;;;8.09;95.08;101557.63;4951556;28;20035;-75
2021/11/07 02:08:41;;;;;;;12.65;5.53;;;;;;;8.09;95.04;101560.19;4947642;28;20103;-76
2021/11/07 02:11:06;;;;;;;11.23;5.57;;;;;;;8.13;95.15;101546.91;4992797;28;20035;-75
2021/11/07 02:13:32;;;;;;;8.07;5.07;;;;;;;8.14;95.06;101537.41;5025845;28;20073;-76
2021/11/07 02:15:57;;;;;;;8.60;4.53;;;;;;;8.13;95.04;101536.56;4951658;28;20032;-76
2021/11/07 02:18:24;;;;;;;9.82;4.80;;;;;;;8.12;95.12;101528.97;4947381;28;20546;-75
2021/11/07 02:20:50;;;;;;;11.20;4.95;;;;;;;8.05;95.52;101528.63;5026900;28;20043;-73
2021/11/07 02:23:20;;;;;;;11.98;5.25;;;;;;;8.06;95.18;101519.94;5017339;28;20033;-77
2021/11/07 02:25:47;;;;;;;8.77;5.10;;;;;;;8.09;95.42;101527.44;4947824;28;20039;-75
2021/11/07 02:28:30;;;;;;;14.68;5.57;;;;;;;8.11;95.32;101515.22;5005492;28;20028;-75
2021/11/07 02:30:56;;;;;;;11.18;5.20;;;;;;;8.05;95.54;101512.31;4946148;28;20043;-82
2021/11/07 02:33:22;;;;;;;8.95;5.05;;;;;;;8.07;95.43;101513.00;5016252;28;20044;-72
2021/11/07 02:35:48;;;;;;;8.40;5.57;;;;;;;8.14;95.55;101512.38;5029631;28;20046;-75
2021/11/07 02:38:15;;;;;;;9.95;5.40;;;;;;;8.08;95.25;101505.13;5008319;28;20039;-77
2021/11/07 02:40:41;;;;;;;14.40;6.65;;;;;;;8.07;95.55;101510.44;5010553;28;20120;-74
2021/11/07 02:43:06;;;;;;;8.57;4.85;;;;;;;8.08;95.59;101501.72;4996878;28;20031;-75
2021/11/07 02:45:32;;;;;;;10.35;5.10;;;;;;;8.12;95.70;101500.56;4952916;28;20046;-77
2021/11/07 02:47:58;;;;;;;8.35;5.18;;;;;;;8.07;95.97;101505.25;4973559;28;20070;-73
2021/11/07 02:50:23;;;;;;;8.18;5.45;;;;;;;8.09;96.03;101493.03;4990056;28;20039;-73
2021/11/07 02:52:50;;;;;;;10.02;5.60;;;;;;;8.12;95.86;101493.63;4966703;28;20051;-75
2021/11/07 02:55:16;;;;;;;10.55;5.72;;;;;;;8.17;96.12;101504.41;4977746;28;20040;-75
2021/11/07 02:57:45;;;;;;;9.27;6.07;;;;;;;8.15;95.71;101492.53;5014852;28;20023;-75
2021/11/07 03:00:11;;;;;;;10.35;5.80;;;;;;;8.10;95.83;101492.06;4946619;28;20027;-75
2021/11/07 03:02:38;;;;;;;12.18;6.20;;;;;;;8.14;96.35;101475.41;5007208;28;20031;-74
2021/11/07 03:05:07;;;;;;;11.27;6.25;;;;;;;8.16;95.74;101469.16;4979788;28;20029;-75
2021/11/07 03:07:33;;;;;;;11.65;6.00;;;;;;;8.15;95.85;101461.53;5027518;28;20031;-75
2021/11/07 03:09:59;;;;;;;8.75;6.35;;;;;;;8.13;96.01;101459.06;4961234;28;20035;-73
2021/11/07 03:12:25;;;;;;;9.20;6.25;;;;;;;8.16;96.04;101458.03;4972111;28;20046;-75
2021/11/07 03:14:52;;;;;;;11.35;7.13;;;;;;;8.26;95.61;101469.25;5004468;28;20046;-76
2021/11/07 03:17:22;;;;;;;11.82;7.00;;;;;;;8.23;95.40;101461.75;4962790;28;20573;-73
2021/11/07 03:19:48;;;;;;;10.10;6.50;;;;;;;8.20;95.53;101459.41;5025530;28;20031;-76
2021/11/07 03:22:17;;;;;;;12.65;6.68;;;;;;;8.19;96.03;101445.69;4981817;28;20069;-75
2021/11/07 03:24:45;;;;;;;9.25;6.40;;;;;;;8.29;95.41;101458.66;5024010;28;20035;-76
2021/11/07 03:27:18;;;;;;;12.00;6.90;;;;;;;8.23;95.84;101463.50;4993773;28;20276;-75
2021/11/07 03:29:52;;;;;;;9.88;6.07;;;;;;;8.34;95.24;101459.13;4985320;28;20080;-73
2021/11/07 03:32:24;;;;;;;10.27;5.78;;;;;;;8.34;95.30;101455.69;4986155;28;20047;-74
2021/11/07 03:34:54;;;;;;;10.10;6.13;;;;;;;8.32;95.40;101444.66;4987831;28;20058;-77
2021/11/07 03:37:26;;;;;;;11.60;6.18;;;;;;;8.31;95.23;101443.03;4996581;28;20106;-72
2021/11/07 03:39:54;;;;;;;8.60;5.77;;;;;;;8.35;94.74;101441.84;4961286;28;20036;-73
2021/11/07 03:42:21;;;;;;;13.55;6.25;;;;;;;8.30;95.10;101426.69;4993481;28;20126;-74
2021/11/07 03:44:47;;;;;;;15.70;6.50;;;;;;;8.37;94.92;101420.09;4950336;28;20116;-73
2021/11/07 03:47:13;;;;;;;12.27;6.43;;;;;;;8.39;95.06;101428.53;4979997;28;20036;-76
2021/11/07 03:49:40;;;;;;;12.43;5.93;;;;;;;8.35;94.85;101411.63;4966689;28;20031;-73
2021/11/07 03:52:07;;;;;;;14.25;6.22;;;;;;;8.46;94.53;101412.56;5028228;28;20109;-78
2021/11/07 03:54:33;;;;;;;10.18;6.05;;;;;;;8.38;94.59;101411.41;5013871;28;20033;-74
2021/11/07 03:57:00;;;;;;;8.80;6.30;;;;;;;8.41;94.91;101401.75;5019955;28;20066;-73
2021/11/07 03:59:27;;;;;;;10.93;6.57;;;;;;;8.38;94.75;101405.38;5025056;28;20058;-73
2021/11/07 04:01:52;;;;;;;11.20;6.15;;;;;;;8.41;94.87;101410.31;4947259;28;20262;-73
2021/11/07 04:04:18;;;;;;;11.20;6.40;;;;;;;8.35;95.00;101411.63;5009406;28;20165;-72
2021/11/07 04:06:44;;;;;;;9.77;6.47;;;;;;;8.48;94.79;101395.97;4961950;28;20149;-74
2021/11/07 04:09:10;;;;;;;11.15;6.60;;;;;;;8.42;94.84;101400.81;5000987;28;20464;-75
2021/11/07 04:11:36;;;;;;;9.23;6.18;;;;;;;8.41;95.36;101391.41;5031275;28;20042;-73
2021/11/07 04:14:03;;;;;;;9.75;6.32;;;;;;;8.47;94.66;101378.81;5032491;28;20040;-73
2021/11/07 04:16:30;;;;;;;9.30;6.57;;;;;;;8.52;94.71;101381.03;5015231;28;20040;-75
2021/11/07 04:18:56;;;;;;;11.85;7.15;;;;;;;8.48;94.55;101388.22;5001791;28;20031;-75
2021/11/07 04:21:22;;;;;;;10.68;6.18;;;;;;;8.53;94.52;101399.00;4985136;28;20115;-76
2021/11/07 04:23:48;;;;;;;9.85;7.05;;;;;;;8.49;95.00;101389.03;5024309;28;20032;-73
2021/11/07 04:26:13;;;;;;;12.88;6.80;;;;;;;8.51;94.96;101382.81;5019831;28;20101;-76
2021/11/07 04:28:39;;;;;;;13.80;7.45;;;;;;;8.54;94.56;101379.13;4965547;28;20024;-75
2021/11/07 04:31:05;;;;;;;10.63;7.38;;;;;;;8.48;95.21;101375.31;4945320;28;20043;-74
2021/11/07 04:33:31;;;;;;;10.30;6.90;;;;;;;8.53;95.14;101369.72;4982346;28;20027;-73
2021/11/07 04:35:56;;;;;;;10.93;7.63;;;;;;;8.60;94.76;101370.84;5001507;28;20080;-74
2021/11/07 04:38:23;;;;;;;10.32;6.90;;;;;;;8.55;94.64;101373.84;5013389;28;20035;-74
2021/11/07 04:40:49;;;;;;;10.07;6.60;;;;;;;8.55;95.04;101370.41;4960996;28;20464;-77
2021/11/07 04:43:15;;;;;;;10.07;6.57;;;;;;;8.54;95.04;101372.19;4945710;28;20442;-74
2021/11/07 04:45:41;;;;;;;15.05;7.95;;;;;;;8.56;94.96;101372.06;4947866;28;20039;-77
2021/11/07 04:48:06;;;;;;;10.63;7.50;;;;;;;8.56;95.04;101359.16;5010736;28;20089;-73
2021/11/07 04:50:36;;;;;;;11.90;7.30;;;;;;;8.48;95.62;101346.06;5019156;28;20091;-74
2021/11/07 04:53:05;;;;;;;11.75;7.65;;;;;;;8.60;94.99;101344.19;5014077;28;20126;-74
2021/11/07 04:55:32;;;;;;;10.57;7.25;;;;;;;8.66;94.72;101348.84;5027155;28;20079;-79
2021/11/07 04:57:58;;;;;;;15.70;7.55;;;;;;;8.66;94.36;101349.66;4992151;28;20030;-75
2021/11/07 05:00:23;;;;;;;13.18;7.90;;;;;;;8.68;94.90;101352.09;4969909;28;20503;-73
2021/11/07 05:02:50;;;;;;;13.02;7.63;;;;;;;8.64;94.46;101350.75;5033125;28;20089;-75
2021/11/07 05:05:17;;;;;;;11.15;7.72;;;;;;;8.67;94.65;101356.47;4993369;28;20514;-74
2021/11/07 05:07:43;;;;;;;11.32;7.65;;;;;;;8.76;94.57;101353.09;4952025;28;20040;-75
2021/11/07 05:10:09;;;;;;;15.23;8.20;;;;;;;8.76;94.70;101341.97;4947391;28;20240;-74
2021/11/07 05:12:34;;;;;;;17.08;8.30;;;;;;;8.69;94.89;101346.00;4972773;28;20096;-74
2021/11/07 05:15:00;;;;;;;11.88;7.75;;;;;;;8.67;95.12;101346.13;5019140;28;20130;-75
2021/11/07 05:17:25;;;;;;;14.18;8.43;;;;;;;8.56;95.78;101343.63;5007814;28;20019;-74
2021/11/07 05:19:51;;;;;;;15.45;8.00;;;;;;;8.71;95.35;101332.00;4944441;28;20050;-74
2021/11/07 05:22:17;;;;;;;11.35;7.88;;;;;;;8.71;95.51;101326.00;5001912;28;20545;-74
2021/11/07 05:24:43;;;;;;;12.65;8.10;;;;;;;8.66;95.52;101320.41;5020781;28;20054;-75
2021/11/07 05:27:08;;;;;;;12.70;7.90;;;;;;;8.76;94.94;101332.44;4985937;28;20830;-74
2021/11/07 05:29:34;;;;;;;16.45;8.60;;;;;;;8.72;95.49;101310.38;4955984;28;20027;-77
2021/11/07 05:32:00;;;;;;;13.05;8.20;;;;;;;8.88;95.25;101306.47;5031080;28;20522;-76
2021/11/07 05:34:26;;;;;;;14.93;8.05;;;;;;;8.86;94.81;101311.75;4947286;28;20042;-76
2021/11/07 05:36:52;;;;;;;13.25;7.95;;;;;;;8.75;95.11;101343.69;4948342;28;20482;-75
2021/11/07 05:39:19;;;;;;;12.10;8.27;;;;;;;8.83;95.27;101337.06;5002542;28;20035;-75
2021/11/07 05:41:44;;;;;;;16.27;9.30;;;;;;;8.69;95.45;101322.75;4947059;28;20043;-74
2021/11/07 05:44:10;;;;;;;13.63;8.00;;;;;;;8.75;95.97;101320.44;4973820;28;20039;-75
2021/11/07 05:46:36;;;;;;;17.23;8.85;;;;;;;8.80;95.46;101316.63;4981669;28;20050;-75
2021/11/07 05:49:01;;;;;;;18.20;9.10;;;;;;;8.71;95.72;101298.38;4997597;28;20468;-75
2021/11/07 05:51:27;;;;;;;14.70;8.35;;;;;;;8.81;96.09;101297.59;5037901;28;20046;-72
2021/11/07 05:53:53;;;;;;;17.88;8.70;;;;;;;8.95;95.07;101310.97;4994132;28;20035;-78
2021/11/07 05:56:19;;;;;;;13.00;8.45;;;;;;;8.85;95.39;101310.09;4988929;28;20524;-77
2021/11/07 05:58:44;;;;;;;15.13;8.25;;;;;;;8.86;95.47;101300.59;5009610;28;20034;-75
2021/11/07 06:01:10;;;;;;;12.13;8.60;;;;;;;8.91;95.22;101298.41;5000611;28;20503;-74
2021/11/07 06:03:35;;;;;;;17.48;8.80;;;;;;;8.90;95.41;101301.97;5022607;28;20038;-74
2021/11/07 06:06:01;;;;;;;13.55;8.23;;;;;;;8.91;95.79;101311.34;5006907;28;20321;-74
2021/11/07 06:08:27;;;;;;;14.45;8.68;;;;;;;8.96;95.33;101317.75;4948785;28;20058;-74
2021/11/07 06:10:53;;;;;;;17.00;8.73;;;;;;;9.03;95.69;101323.22;5012326;28;20206;-73
2021/11/07 06:13:19;;;;;;;13.18;8.30;;;;;;;8.94;95.82;101319.66;5002728;28;20077;-75
2021/11/07 06:15:44;;;;;;;16.13;8.65;;;;;;;9.02;96.09;101323.38;4946977;28;20479;-76
2021/11/07 06:18:10;;;;;;;12.88;8.38;;;;;;;8.98;96.29;101325.41;4999402;28;20442;-77
2021/11/07 06:20:35;;;;;;;12.77;8.48;;;;;;;8.99;96.51;101328.81;4957990;28;20027;-77
2021/11/07 06:23:02;;;;;;;12.50;8.45;;;;;;;8.91;96.88;101334.63;5015045;28;20058;-76
2021/11/07 06:25:29;;;;;;;14.23;8.70;;;;;;;8.89;97.10;101341.69;5015887;28;20114;-76
2021/11/07 06:27:54;;;;;;;13.10;8.48;;;;;;;8.92;97.55;101344.84;4993951;28;20143;-77
2021/11/07 06:30:20;;;;;;;12.35;8.18;;;;;;;9.01;96.98;101353.59;4986712;28;20047;-76
2021/11/07 06:32:46;;;;;;;13.68;8.48;;;;;;;9.09;96.60;101342.59;4986726;28;20031;-75
2021/11/07 06:35:13;;;;;;;12.88;7.80;;;;;;;9.00;96.69;101335.63;4977916;28;20422;-76
2021/11/07 06:37:41;;;;;;;15.65;7.82;;;;;;;8.90;96.94;101339.00;4946620;28;20431;-76
2021/11/07 06:40:09;;;;;;;11.05;7.43;;;;;;;8.92;97.17;101339.66;4980823;28;20635;-76
2021/11/07 06:42:34;;;;;;;16.10;7.78;;;;;;;8.95;97.07;101336.03;4946103;28;20053;-75
2021/11/07 06:44:59;;;;;;;16.40;8.70;;;;;;;8.92;97.18;101325.94;4947291;28;20742;-74
2021/11/07 06:47:25;;;;;;;18.08;9.25;;;;;;;8.93;96.58;101332.75;4943615;28;20039;-75
2021/11/07 06:49:53;;;;;;;15.18;8.40;;;;;;;8.87;96.74;101335.84;5020369;28;20039;-74
2021/11/07 06:52:19;;;;;;;16.88;9.52;;;;;;;8.91;96.96;101337.22;5007677;28;20035;-75
2021/11/07 06:54:47;;;;;;;14.27;10.30;;;;;;;8.91;96.83;101348.41;4945303;28;20031;-75
2021/11/07 06:57:12;;;;;;;17.33;10.20;;;;;;;8.87;97.17;101354.78;5020833;28;20430;-74
2021/11/07 06:59:38;;;;;;;18.60;10.52;;;;;;;8.90;97.47;101364.03;4945965;28;20027;-75
2021/11/07 07:02:04;;;;;;;13.38;9.30;;;;;;;9.03;96.91;101364.63;4945273;28;20035;-82
2021/11/07 07:04:29;;;;;;;19.00;9.88;;;;;;;9.03;96.82;101363.81;5010212;28;20515;-74
2021/11/07 07:06:55;;;;;;;20.98;9.38;;;;;;;9.06;96.71;101356.63;5011780;28;20486;-74
2021/11/07 07:09:25;;;;;;;17.40;8.55;;;;;;;9.14;96.85;101355.94;4945081;28;20019;-74
2021/11/07 07:11:55;;;;;;;12.48;8.30;;;;;;;9.08;96.98;101362.47;4998596;28;20423;-74
2021/11/07 07:14:28;;;;;;;14.43;7.47;;;;;;;9.13;96.66;101369.81;5015147;28;20070;-74
2021/11/07 07:22:04;;;;;;;12.60;7.15;;;;;;;9.22;96.36;101365.63;4965113;28;20045;-75
2021/11/07 07:29:57;;;;;;;12.40;7.10;;;;;;;9.14;96.05;101358.53;5001588;28;20031;-73
2021/11/07 07:35:01;;;;;;;15.88;7.10;;;;;;;9.12;95.84;101374.19;4942225;28;20070;-73
2021/11/07 07:37:26;;;;;;;14.73;7.43;;;;;;;9.07;96.16;101367.78;5010439;28;20105;-74
2021/11/07 07:39:53;;;;;;;13.50;6.85;;;;;;;9.07;96.08;101376.34;4997146;28;20700;-74
2021/11/07 07:42:18;;;;;;;14.02;7.05;;;;;;;9.29;95.16;101367.53;4996762;28;20040;-74
2021/11/07 07:44:44;;;;;;;10.38;6.25;;;;;;;9.29;95.06;101362.38;5000421;28;20093;-77
2021/11/07 07:47:10;;;;;;;13.70;6.30;;;;;;;9.28;94.67;101359.91;4945972;28;20034;-74
2021/11/07 07:49:36;;;;;;;15.82;5.95;;;;;;;9.16;95.01;101364.38;5024657;28;20039;-74
2021/11/07 07:52:02;;;;;;;13.57;7.80;;;;;;;9.31;94.62;101370.81;4944084;28;20038;-75
2021/11/07 07:54:27;;;;;;;14.85;7.38;;;;;;;9.35;94.40;101361.03;5017453;28;20184;-74
2021/11/07 07:56:53;;;;;;;15.52;6.15;;;;;;;9.51;94.60;101365.66;5025688;28;20033;-74
2021/11/07 07:59:19;;;;;;;18.80;6.78;;;;;;;9.68;93.85;101372.78;5011611;28;20595;-74
2021/11/07 08:01:45;;;;;;;14.23;5.72;;;;;;;9.74;93.17;101374.81;5010880;28;20089;-75
2021/11/07 08:04:10;;;;;;;13.20;5.50;;;;;;;9.82;93.27;101376.72;5037456;28;20044;-73
2021/11/07 08:06:36;;;;;;;14.95;6.40;;;;;;;9.92;91.82;101381.88;5027700;28;20023;-73
2021/11/07 08:09:03;;;;;;;11.13;5.70;;;;;;;9.96;91.25;101379.84;5000809;28;20039;-74
2021/11/07 08:11:28;;;;;;;12.32;5.63;;;;;;;9.92;91.65;101379.28;5021450;28;20058;-74
2021/11/07 08:13:54;;;;;;;11.93;5.60;;;;;;;9.87;91.61;101376.28;5011289;28;20039;-73
2021/11/07 08:16:24;;;;;;;16.27;6.03;;;;;;;9.93;92.05;101368.81;5021576;28;20039;-75
2021/11/07 08:18:50;;;;;;;14.38;5.47;;;;;;;9.91;91.37;101362.13;5025009;28;20093;-74
2021/11/07 08:21:17;;;;;;;13.52;6.53;;;;;;;10.03;90.33;101362.78;5016772;28;20644;-73
2021/11/07 08:23:43;;;;;;;18.83;5.50;;;;;;;10.23;89.75;101373.97;5026110;28;20047;-75
2021/11/07 08:26:09;;;;;;;21.02;9.20;;;;;;;10.38;88.40;101370.00;4947315;28;20072;-74
2021/11/07 08:28:35;;;;;;;13.82;5.10;;;;;;;10.43;87.81;101378.13;4953597;28;20433;-73
2021/11/07 08:31:06;;;;;;;20.83;6.72;;;;;;;10.29;87.44;101387.16;5005505;28;20428;-73
2021/11/07 08:33:34;;;;;;;15.85;5.07;;;;;;;10.21;88.16;101381.88;5017181;28;20110;-73
2021/11/07 08:36:06;;;;;;;19.85;5.60;;;;;;;10.18;87.97;101378.72;5031584;28;20040;-73
2021/11/07 08:38:38;;;;;;;15.18;4.60;;;;;;;10.23;87.84;101381.72;4973291;28;20056;-79
2021/11/07 08:41:05;;;;;;;;;;;;;;;10.13;87.11;101385.16;4949985;28;20068;-77
2021/11/07 09:05:12;;;;;;;49.15;18.02;;;;;;;10.31;85.57;101392.25;4928447;28;20023;-73
2021/11/07 09:07:50;;;;;;;23.45;8.07;;;;;;;10.32;85.01;101397.28;5026599;28;20400;-74
2021/11/07 09:10:21;;;;;;;35.85;12.02;;;;;;;10.37;84.42;101388.28;4967780;28;20127;-74
2021/11/07 09:12:48;;;;;;;32.53;8.23;;;;;;;10.33;84.70;101396.31;4924482;28;20036;-76
2021/11/07 09:15:16;;;;;;;24.27;7.47;;;;;;;10.42;83.76;101393.88;4975205;28;20078;-75
2021/11/07 09:17:44;;;;;;;18.95;5.20;;;;;;;10.48;83.53;101396.69;5025029;28;20032;-76
2021/11/07 09:20:15;;;;;;;25.52;6.28;;;;;;;10.51;83.62;101395.63;4976380;28;20040;-74
2021/11/07 09:22:52;;;;;;;20.55;4.68;;;;;;;10.56;82.72;101392.59;4920984;28;20048;-74
2021/11/07 09:25:23;;;;;;;17.75;5.65;;;;;;;10.52;82.71;101384.28;5023236;28;20421;-75
2021/11/07 09:28:06;;;;;;;22.83;6.18;;;;;;;10.57;82.51;101391.59;5010383;28;20074;-73
2021/11/07 09:35:44;;;;;;;33.67;8.85;;;;;;;10.87;82.22;101408.72;5011547;28;20060;-74
2021/11/07 09:38:32;;;;;;;19.70;5.75;;;;;;;10.73;81.49;101411.78;5010551;28;20117;-75
2021/11/07 09:49:13;;;;;;;32.78;10.98;;;;;;;10.59;80.11;101416.47;5006942;28;20488;-74
2021/11/07 09:51:39;;;;;;;40.45;14.25;;;;;;;10.57;79.47;101414.94;4932144;28;20040;-74
2021/11/07 09:54:05;;;;;;;38.33;9.40;;;;;;;10.68;79.78;101409.59;5026914;28;20225;-75
2021/11/07 09:56:32;;;;;;;36.38;11.52;;;;;;;10.71;79.64;101412.72;5009239;28;20121;-76
2021/11/07 09:58:59;;;;;;;66.20;17.15;;;;;;;10.78;78.59;101415.56;5010580;28;20404;-74
2021/11/07 10:01:27;;;;;;;50.35;12.10;;;;;;;10.82;77.85;101416.94;4925691;28;20139;-74
2021/11/07 10:03:54;;;;;;;29.38;4.97;;;;;;;10.77;77.31;101413.13;5000010;28;20304;-75
2021/11/07 10:06:38;;;;;;;26.70;7.72;;;;;;;10.89;77.10;101418.00;5009223;28;20027;-74
2021/11/07 10:09:06;;;;;;;33.85;6.25;;;;;;;10.80;77.06;101426.63;4993403;28;20133;-76
2021/11/07 10:11:42;;;;;;;34.00;9.88;;;;;;;10.77;77.07;101410.53;4995262;28;20115;-75
2021/11/07 10:14:16;;;;;;;21.92;5.32;;;;;;;10.71;76.96;101410.13;5009278;28;20068;-74
2021/11/07 10:16:50;;;;;;;24.38;4.20;;;;;;;10.81;75.87;101411.88;5020959;28;20125;-74
2021/11/07 10:19:43;;;;;;;27.85;6.28;;;;;;;10.81;75.84;101415.31;5006329;28;20265;-74
2021/11/07 10:22:20;;;;;;;17.27;4.78;;;;;;;10.77;75.35;101418.31;4926393;28;20623;-74
2021/11/07 10:24:55;;;;;;;17.77;3.25;;;;;;;10.77;74.76;101407.94;4990935;28;20421;-74
2021/11/07 10:27:20;;;;;;;23.98;6.50;;;;;;;10.84;75.19;101409.00;5005976;28;20031;-73
2021/11/07 10:29:49;;;;;;;20.10;5.00;;;;;;;10.74;74.50;101408.22;5018732;28;20597;-74
2021/11/07 10:32:22;;;;;;;25.67;6.70;;;;;;;10.77;74.80;101408.75;4994879;28;20404;-73
2021/11/07 10:41:03;;;;;;;26.30;5.15;;;;;;;10.94;73.85;101403.78;5018669;28;20082;-74
2021/11/07 10:53:14;;;;;;;20.50;5.32;;;;;;;11.32;73.57;101402.75;4974519;28;20040;-74
2021/11/07 10:55:45;;;;;;;21.20;4.75;;;;;;;11.28;72.36;101414.38;5009477;28;20043;-74
2021/11/07 10:58:11;;;;;;;23.63;4.72;;;;;;;11.13;70.83;101403.66;4993408;28;20472;-75
2021/11/07 11:00:48;;;;;;;15.20;3.63;;;;;;;11.25;71.67;101409.50;5024524;28;20050;-74
2021/11/07 11:03:18;;;;;;;26.08;6.28;;;;;;;11.15;69.89;101408.72;5004885;28;20309;-73
2021/11/07 11:06:18;;;;;;;19.60;4.13;;;;;;;11.19;68.89;101399.69;4954781;28;20051;-75
2021/11/07 11:09:02;;;;;;;21.23;4.05;;;;;;;11.20;68.72;101391.75;4992320;28;20064;-76
2021/11/07 11:14:16;;;;;;;24.38;4.80;;;;;;;11.08;69.29;101387.72;4942585;28;20054;-77
2021/11/07 11:17:05;;;;;;;25.77;2.30;;;;;;;11.06;70.36;101403.44;5019906;28;20027;-76
2021/11/07 11:30:19;;;;;;;19.90;3.35;;;;;;;11.04;68.78;101399.38;4959249;28;20039;-76
2021/11/07 11:32:48;;;;;;;15.70;2.42;;;;;;;10.84;69.10;101399.44;4936750;28;20043;-75
2021/11/07 11:37:57;;;;;;;23.35;4.05;;;;;;;10.86;69.35;101396.69;5036742;28;20119;-75
2021/11/07 11:42:56;;;;;;;21.02;2.65;;;;;;;10.88;69.98;101387.00;5009167;28;20360;-78
2021/11/07 11:45:26;;;;;;;22.88;3.60;;;;;;;10.94;69.02;101383.81;5005523;28;20542;-74
2021/11/07 11:53:14;;;;;;;11.50;1.95;;;;;;;11.01;69.49;101374.50;5025105;28;20049;-75
2021/11/07 11:55:44;;;;;;;13.32;2.60;;;;;;;10.97;69.21;101373.16;4996544;28;20059;-76
2021/11/07 12:03:50;;;;;;;24.85;4.18;;;;;;;11.00;68.04;101365.09;4968107;28;20044;-74
2021/11/07 12:09:59;;;;;;;17.67;2.58;;;;;;;11.01;67.38;101368.50;5009897;28;20166;-76
2021/11/07 12:12:15;;;;;;;29.60;7.85;;;;;;;10.93;68.26;101366.63;4936475;28;20047;-73
2021/11/07 12:15:03;;;;;;;95.68;27.73;;;;;;;10.95;67.62;101361.31;5010015;28;20534;-74
2021/11/07 12:17:35;;;;;;;237.50;65.43;;;;;;;10.91;67.99;101361.59;5003378;28;20045;-75
2021/11/07 12:20:23;;;;;;;101.85;25.60;;;;;;;10.88;68.61;101356.69;4925413;28;20031;-74
2021/11/07 12:22:50;;;;;;;55.75;13.23;;;;;;;10.96;69.19;101339.56;5011762;28;20194;-76
2021/11/07 12:25:17;;;;;;;266.98;73.68;;;;;;;11.04;68.40;101350.06;4921333;28;20116;-74
2021/11/07 12:27:53;;;;;;;158.38;41.80;;;;;;;10.98;67.89;101348.88;4945405;28;20041;-73
2021/11/07 12:30:28;;;;;;;64.03;15.77;;;;;;;11.15;68.54;101346.41;4969387;28;20047;-76
2021/11/07 12:33:23;;;;;;;114.88;37.53;;;;;;;11.33;67.94;101352.47;5022113;28;20336;-75
2021/11/07 12:36:11;;;;;;;66.88;21.08;;;;;;;11.45;66.88;101347.84;4925534;28;20534;-74
2021/11/07 12:41:27;;;;;;;51.08;13.38;;;;;;;11.63;65.79;101347.88;5005065;28;20044;-75
2021/11/07 12:44:02;;;;;;;29.10;8.95;;;;;;;11.49;64.86;101349.22;5017466;28;20033;-75
2021/11/07 12:46:50;;;;;;;15.75;4.07;;;;;;;11.40;65.46;101347.50;5007449;28;20516;-77
2021/11/07 12:49:16;;;;;;;19.30;4.28;;;;;;;11.36;66.34;101349.56;4988907;28;20408;-75
2021/11/07 12:51:52;;;;;;;21.92;3.47;;;;;;;11.33;65.10;101351.66;4921851;28;20151;-74
2021/11/07 12:54:24;;;;;;;23.45;3.30;;;;;;;11.37;65.70;101350.38;5018846;28;20125;-75
2021/11/07 12:57:08;;;;;;;16.83;3.47;;;;;;;11.50;65.64;101338.66;5026626;28;20054;-75
2021/11/07 12:59:38;;;;;;;19.55;3.58;;;;;;;11.45;65.72;101351.28;5011838;28;20414;-74
2021/11/07 13:02:09;;;;;;;17.63;3.28;;;;;;;11.49;64.26;101337.03;4985331;28;20079;-75
2021/11/07 13:04:42;;;;;;;20.15;2.53;;;;;;;11.45;64.25;101338.31;5011428;28;20044;-75
2021/11/07 13:07:17;;;;;;;22.27;2.65;;;;;;;11.31;64.75;101331.03;5009611;28;20039;-73
2021/11/07 13:09:52;;;;;;;27.85;2.70;;;;;;;11.38;64.52;101339.03;5011473;28;20072;-75
2021/11/07 13:12:22;;;;;;;15.75;3.13;;;;;;;11.18;65.19;101333.97;5008743;28;20042;-74
2021/11/07 13:15:17;;;;;;;18.40;3.17;;;;;;;11.21;65.03;101332.88;5003422;28;20519;-77
2021/11/07 13:23:39;;;;;;;26.95;3.30;;;;;;;11.12;65.21;101341.53;5004586;28;20042;-75
2021/11/07 13:28:38;;;;;;;16.63;2.55;;;;;;;11.02;65.86;101342.41;4957042;28;20040;-78
2021/11/07 13:31:18;;;;;;;23.20;2.67;;;;;;;11.06;66.84;101341.16;4925529;28;20035;-73
2021/11/07 13:33:44;;;;;;;21.42;2.67;;;;;;;11.02;66.34;101345.00;4921333;28;20539;-74
2021/11/07 13:36:19;;;;;;;28.08;3.42;;;;;;;10.91;65.32;101347.81;4929463;28;20024;-75
2021/11/07 13:38:58;;;;;;;22.63;4.22;;;;;;;10.96;66.39;101358.53;4994140;28;20039;-75
2021/11/07 13:41:26;;;;;;;16.90;2.70;;;;;;;10.87;66.52;101354.25;4994934;28;20043;-76
2021/11/07 13:44:01;;;;;;;17.88;3.45;;;;;;;10.90;66.00;101353.94;5007864;28;20043;-76